createdAt,value
2022-10-15T00:01:15.854Z,163.50
2022-10-15T00:03:44.219Z,166.00
2022-10-15T00:06:13.862Z,165.77
2022-10-15T00:08:40.964Z,164.63
2022-10-15T00:11:12.144Z,159.48
2022-10-15T00:13:39.487Z,192.30
2022-10-15T00:16:09.542Z,185.70
2022-10-15T00:18:36.069Z,188.00
2022-10-15T00:21:06.254Z,186.52
2022-10-15T00:23:32.740Z,189.93
2022-10-15T00:26:13.991Z,185.38
2022-10-15T00:28:41.088Z,184.70
2022-10-15T00:31:11.416Z,193.55
2022-10-15T00:33:38.460Z,190.07
2022-10-15T00:36:14.533Z,196.52
2022-10-15T00:38:41.406Z,193.38
2022-10-15T00:41:12.679Z,194.80
2022-10-15T00:43:41.214Z,188.90
2022-10-15T00:46:35.690Z,193.70
2022-10-15T00:49:26.006Z,184.20
2022-10-15T00:51:56.830Z,177.23
2022-10-15T00:54:23.801Z,179.52
2022-10-15T00:56:51.654Z,178.52
2022-10-15T00:59:22.434Z,178.10
2022-10-15T01:01:48.946Z,180.48
2022-10-15T01:04:18.755Z,185.68
2022-10-15T01:06:46.043Z,182.38
2022-10-15T01:09:13.296Z,184.43
2022-10-15T01:11:44.814Z,176.32
2022-10-15T01:14:31.654Z,182.88
2022-10-15T01:17:10.142Z,174.52
2022-10-15T01:19:54.766Z,172.90
2022-10-15T01:22:49.074Z,167.75
2022-10-15T01:25:22.066Z,160.52
2022-10-15T01:27:56.812Z,167.32
2022-10-15T01:30:25.903Z,174.48
2022-10-15T01:33:11.278Z,172.85
2022-10-15T01:35:47.741Z,173.05
2022-10-15T01:38:32.362Z,181.40
2022-10-15T01:41:00.402Z,171.43
2022-10-15T01:43:43.860Z,170.85
2022-10-15T01:46:20.683Z,165.57
2022-10-15T01:48:48.695Z,159.05
2022-10-15T01:51:17.715Z,160.13
2022-10-15T01:53:45.854Z,164.93
2022-10-15T01:56:22.492Z,170.85
2022-10-15T01:58:52.007Z,159.27
2022-10-15T02:01:18.671Z,161.48
2022-10-15T02:03:52.923Z,154.68
2022-10-15T02:06:34.510Z,159.00
2022-10-15T02:09:15.443Z,148.48
2022-10-15T02:12:06.192Z,154.00
2022-10-15T02:14:47.858Z,154.27
2022-10-15T02:17:16.405Z,149.93
2022-10-15T02:19:51.746Z,156.77
2022-10-15T02:22:26.903Z,153.55
2022-10-15T02:25:03.230Z,150.00
2022-10-15T02:27:32.900Z,146.55
2022-10-15T02:30:07.524Z,148.23
2022-10-15T02:35:03.024Z,124.40
2022-10-15T02:37:31.094Z,142.82
2022-10-15T02:39:57.675Z,143.70
2022-10-15T02:42:25.021Z,148.98
2022-10-15T02:44:51.964Z,147.02
2022-10-15T02:47:18.607Z,147.07
2022-10-15T02:49:45.112Z,146.30
2022-10-15T02:52:11.626Z,139.45
2022-10-15T02:54:38.139Z,135.80
2022-10-15T02:57:04.631Z,132.05
2022-10-15T02:59:31.106Z,130.90
2022-10-15T03:01:57.631Z,130.55
2022-10-15T03:04:24.109Z,122.90
2022-10-15T03:06:50.878Z,122.22
2022-10-15T03:09:17.402Z,123.82
2022-10-15T03:11:43.949Z,118.70
2022-10-15T03:14:10.503Z,112.72
2022-10-15T03:16:39.370Z,114.78
2022-10-15T03:19:07.709Z,112.13
2022-10-15T03:21:34.254Z,112.45
2022-10-15T03:24:00.765Z,109.00
2022-10-15T03:26:27.502Z,109.53
2022-10-15T03:28:54.045Z,109.90
2022-10-15T03:31:20.644Z,106.28
2022-10-15T03:33:47.125Z,105.22
2022-10-15T03:36:13.715Z,100.13
2022-10-15T03:38:40.208Z,98.45
2022-10-15T03:41:07.822Z,92.70
2022-10-15T03:43:37.481Z,90.28
2022-10-15T03:46:08.104Z,86.40
2022-10-15T03:48:34.627Z,84.53
2022-10-15T03:51:01.200Z,88.68
2022-10-15T03:53:27.761Z,85.97
2022-10-15T03:55:54.430Z,83.07
2022-10-15T03:58:21.062Z,81.13
2022-10-15T04:00:47.609Z,81.88
2022-10-15T04:03:14.519Z,79.03
2022-10-15T04:05:40.991Z,76.47
2022-10-15T04:08:07.527Z,79.00
2022-10-15T04:10:34.102Z,76.28
2022-10-15T04:13:00.592Z,74.95
2022-10-15T04:15:27.875Z,71.28
2022-10-15T04:17:55.705Z,67.60
2022-10-15T04:20:22.274Z,65.45
2022-10-15T04:22:48.747Z,62.75
2022-10-15T04:25:15.521Z,62.15
2022-10-15T04:27:42.019Z,62.20
2022-10-15T04:30:09.339Z,60.33
2022-10-15T04:32:35.848Z,60.53
2022-10-15T04:35:02.310Z,55.97
2022-10-15T04:37:28.838Z,53.17
2022-10-15T04:39:55.335Z,57.15
2022-10-15T04:42:22.073Z,53.45
2022-10-15T04:44:48.545Z,54.92
2022-10-15T04:47:15.045Z,51.45
2022-10-15T04:49:41.736Z,47.72
2022-10-15T04:52:08.235Z,48.25
2022-10-15T04:54:34.722Z,47.00
2022-10-15T04:57:01.279Z,46.58
2022-10-15T04:59:27.937Z,48.03
2022-10-15T05:01:54.480Z,47.60
2022-10-15T05:04:21.022Z,47.20
2022-10-15T05:06:47.507Z,45.83
2022-10-15T05:09:14.095Z,45.53
2022-10-15T05:11:40.594Z,46.90
2022-10-15T05:14:07.734Z,49.05
2022-10-15T05:16:34.243Z,46.75
2022-10-15T05:19:03.824Z,49.70
2022-10-15T05:21:31.353Z,48.50
2022-10-15T05:23:59.358Z,46.00
2022-10-15T05:26:27.759Z,46.47
2022-10-15T05:28:56.658Z,46.30
2022-10-15T05:31:25.055Z,47.92
2022-10-15T05:33:53.415Z,44.47
2022-10-15T05:36:22.120Z,44.55
2022-10-15T05:38:51.175Z,45.20
2022-10-15T05:41:18.488Z,48.38
2022-10-15T05:43:49.353Z,47.00
2022-10-15T05:46:15.879Z,48.85
2022-10-15T05:48:42.698Z,51.05
2022-10-15T05:51:12.773Z,45.25
2022-10-15T05:53:40.577Z,45.53
2022-10-15T05:56:08.388Z,42.55
2022-10-15T05:58:37.403Z,43.88
2022-10-15T06:01:07.424Z,42.33
2022-10-15T06:03:34.707Z,44.80
2022-10-15T06:06:01.705Z,44.55
2022-10-15T06:08:29.898Z,49.00
2022-10-15T06:10:56.703Z,50.72
2022-10-15T06:13:23.930Z,49.75
2022-10-15T06:15:50.436Z,52.58
2022-10-15T06:18:17.013Z,53.15
2022-10-15T06:20:44.165Z,50.65
2022-10-15T06:23:12.130Z,51.42
2022-10-15T06:25:38.686Z,52.17
2022-10-15T06:28:06.862Z,53.70
2022-10-15T06:30:33.737Z,54.58
2022-10-15T06:33:00.508Z,58.78
2022-10-15T06:35:30.338Z,63.45
2022-10-15T06:38:03.053Z,67.85
2022-10-15T06:40:30.361Z,70.97
2022-10-15T06:43:07.970Z,84.53
2022-10-15T06:45:36.851Z,98.07
2022-10-15T06:48:07.002Z,112.53
2022-10-15T06:50:34.711Z,133.10
2022-10-15T06:53:01.424Z,155.82
2022-10-15T06:55:31.299Z,169.90
2022-10-15T06:57:58.396Z,174.60
2022-10-15T07:00:25.886Z,193.82
2022-10-15T07:02:52.618Z,203.82
2022-10-15T07:05:19.469Z,221.02
2022-10-15T07:08:03.958Z,236.18
2022-10-15T07:10:30.684Z,224.90
2022-10-15T07:13:00.576Z,234.32
2022-10-15T07:15:27.653Z,245.80
2022-10-15T07:18:01.544Z,247.82
2022-10-15T07:20:29.667Z,253.95
2022-10-15T07:23:01.246Z,251.70
2022-10-15T07:25:28.066Z,263.75
2022-10-15T07:27:55.330Z,314.10
2022-10-15T07:30:23.280Z,309.77
2022-10-15T07:32:50.271Z,311.20
2022-10-15T07:35:17.040Z,342.90
2022-10-15T07:37:43.548Z,345.27
2022-10-15T07:40:10.677Z,353.23
2022-10-15T07:42:37.229Z,364.98
2022-10-15T07:45:04.027Z,382.60
2022-10-15T07:47:30.498Z,387.00
2022-10-15T07:49:56.995Z,376.27
2022-10-15T07:52:23.613Z,385.98
2022-10-15T07:54:50.254Z,372.67
2022-10-15T07:57:17.811Z,379.58
2022-10-15T07:59:44.329Z,352.58
2022-10-15T08:02:18.035Z,390.75
2022-10-15T08:04:44.839Z,333.97
2022-10-15T08:07:11.348Z,330.17
2022-10-15T08:09:37.980Z,293.88
2022-10-15T08:12:06.830Z,228.50
2022-10-15T08:14:34.890Z,160.40
2022-10-15T08:17:05.246Z,285.67
2022-10-15T08:19:31.816Z,261.73
2022-10-15T08:21:58.360Z,241.43
2022-10-15T08:24:25.071Z,211.43
2022-10-15T08:26:51.753Z,232.25
2022-10-15T08:29:18.317Z,214.65
2022-10-15T08:31:44.858Z,208.75
2022-10-15T08:34:11.411Z,183.48
2022-10-15T08:36:37.963Z,151.55
2022-10-15T08:39:07.217Z,171.20
2022-10-15T08:41:48.229Z,144.60
2022-10-15T08:44:43.746Z,73.32
2022-10-15T08:47:32.431Z,95.65
2022-10-15T08:50:01.197Z,107.60
2022-10-15T08:52:42.199Z,150.32
2022-10-15T08:55:13.324Z,145.15
2022-10-15T08:57:43.801Z,230.10
2022-10-15T09:00:10.633Z,257.40
2022-10-15T09:02:54.189Z,337.85
2022-10-15T09:05:42.611Z,272.85
2022-10-15T09:08:29.703Z,184.65
2022-10-15T09:11:14.191Z,108.60
2022-10-15T09:13:43.800Z,89.40
2022-10-15T09:16:17.351Z,47.45
2022-10-15T09:18:47.535Z,49.75
2022-10-15T09:21:14.646Z,43.80
2022-10-15T09:23:43.723Z,44.28
2022-10-15T09:26:35.327Z,40.92
2022-10-15T09:29:32.844Z,42.22
2022-10-15T09:32:07.483Z,43.08
2022-10-15T09:35:02.392Z,47.58
2022-10-15T09:40:28.632Z,46.90
2022-10-15T09:42:58.398Z,53.47
2022-10-15T09:45:27.241Z,55.88
2022-10-15T09:48:00.311Z,47.85
2022-10-15T09:50:39.587Z,53.03
2022-10-15T09:53:39.079Z,45.30
2022-10-15T09:56:20.018Z,33.35
2022-10-15T09:58:57.961Z,27.90
2022-10-15T10:01:28.276Z,23.90
2022-10-15T10:04:17.021Z,20.77
2022-10-15T10:06:45.206Z,23.63
2022-10-15T10:09:19.076Z,26.02
2022-10-15T10:11:49.256Z,24.67
2022-10-15T10:14:26.630Z,23.80
2022-10-15T10:17:16.625Z,21.65
2022-10-15T10:19:44.470Z,19.27
2022-10-15T10:22:20.514Z,23.00
2022-10-15T10:24:48.174Z,26.33
2022-10-15T10:27:24.630Z,28.95
2022-10-15T10:30:02.654Z,32.90
2022-10-15T10:32:34.823Z,35.83
2022-10-15T10:35:04.030Z,31.13
2022-10-15T10:37:42.638Z,28.30
2022-10-15T10:40:34.219Z,27.30
2022-10-15T10:43:24.401Z,25.83
2022-10-15T10:45:55.293Z,24.15
2022-10-15T10:48:28.238Z,25.67
2022-10-15T10:51:08.017Z,24.55
2022-10-15T10:53:46.444Z,22.23
2022-10-15T10:56:15.398Z,23.25
2022-10-15T10:58:42.729Z,23.38
2022-10-15T11:01:12.990Z,22.45
2022-10-15T11:03:45.194Z,24.27
2022-10-15T11:06:40.935Z,24.00
2022-10-15T11:09:28.791Z,24.48
2022-10-15T11:12:04.557Z,27.10
2022-10-15T11:14:53.381Z,25.80
2022-10-15T11:17:57.358Z,25.25
2022-10-15T11:20:41.196Z,28.17
2022-10-15T11:23:15.916Z,28.88
2022-10-15T11:26:03.225Z,29.35
2022-10-15T11:28:59.716Z,29.88
2022-10-15T11:31:37.146Z,30.23
2022-10-15T11:34:34.990Z,27.58
2022-10-15T11:37:29.395Z,31.02
2022-10-15T11:40:15.999Z,32.65
2022-10-15T11:43:18.068Z,29.38
2022-10-15T11:46:03.346Z,32.42
2022-10-15T11:48:58.934Z,34.60
2022-10-15T11:51:48.289Z,32.55
2022-10-15T11:54:28.699Z,32.88
2022-10-15T11:56:57.204Z,38.88
2022-10-15T11:59:26.498Z,33.05
2022-10-15T12:01:59.625Z,34.28
2022-10-15T12:04:49.979Z,29.23
2022-10-15T12:07:26.953Z,30.20
2022-10-15T12:10:00.693Z,30.75
2022-10-15T12:12:45.854Z,32.25
2022-10-15T12:15:36.843Z,29.50
2022-10-15T12:18:21.351Z,28.52
2022-10-15T12:23:39.034Z,26.65
2022-10-15T12:26:23.894Z,26.42
2022-10-15T12:28:59.495Z,27.80
2022-10-15T12:31:51.367Z,29.13
2022-10-15T12:34:42.970Z,29.23
2022-10-15T12:37:18.168Z,27.73
2022-10-15T12:39:52.294Z,28.73
2022-10-15T12:42:27.872Z,31.77
2022-10-15T12:44:55.867Z,31.33
2022-10-15T12:48:03.692Z,29.55
2022-10-15T12:50:35.482Z,31.23
2022-10-15T12:53:25.970Z,32.03
2022-10-15T12:56:34.842Z,32.70
2022-10-15T12:59:01.475Z,31.10
2022-10-15T13:01:30.354Z,33.08
2022-10-15T13:04:00.274Z,30.90
2022-10-15T13:06:33.251Z,34.25
2022-10-15T13:09:12.023Z,34.67
2022-10-15T13:11:45.971Z,35.67
2022-10-15T13:14:12.423Z,31.70
2022-10-15T13:16:47.679Z,49.85
2022-10-15T13:19:22.199Z,49.45
2022-10-15T13:21:54.720Z,32.97
2022-10-15T13:24:27.238Z,32.45
2022-10-15T13:26:55.901Z,34.15
2022-10-15T13:29:25.236Z,32.78
2022-10-15T13:31:55.054Z,29.67
2022-10-15T13:34:34.856Z,30.85
2022-10-15T13:37:03.908Z,31.88
2022-10-15T13:39:35.070Z,33.15
2022-10-15T13:42:18.033Z,32.28
2022-10-15T13:44:55.771Z,30.05
2022-10-15T13:47:46.818Z,33.45
2022-10-15T13:50:28.346Z,31.05
2022-10-15T13:53:16.681Z,30.42
2022-10-15T13:55:49.636Z,30.05
2022-10-15T13:58:21.219Z,30.60
2022-10-15T14:00:59.048Z,35.03
2022-10-15T14:03:36.727Z,28.25
2022-10-15T14:06:15.618Z,39.00
2022-10-15T14:08:42.107Z,30.15
2022-10-15T14:11:12.786Z,31.05
2022-10-15T14:13:51.127Z,29.50
2022-10-15T14:16:29.158Z,32.30
2022-10-15T14:19:06.661Z,30.33
2022-10-15T14:21:34.627Z,34.38
2022-10-15T14:24:06.309Z,30.50
2022-10-15T14:26:34.472Z,29.10
2022-10-15T14:29:03.223Z,32.85
2022-10-15T14:31:31.381Z,38.85
2022-10-15T14:33:57.947Z,41.55
2022-10-15T14:36:30.108Z,30.15
2022-10-15T14:39:22.743Z,37.83
2022-10-15T14:42:01.490Z,32.10
2022-10-15T14:44:41.936Z,36.75
2022-10-15T14:47:20.857Z,36.17
2022-10-15T14:49:48.259Z,40.17
2022-10-15T14:52:19.795Z,33.55
2022-10-15T14:55:07.234Z,51.42
2022-10-15T14:57:38.802Z,39.97
2022-10-15T15:00:16.088Z,31.50
2022-10-15T15:02:42.782Z,28.88
2022-10-15T15:05:12.354Z,34.17
2022-10-15T15:07:40.155Z,31.70
2022-10-15T15:10:08.835Z,32.60
2022-10-15T15:12:38.100Z,27.83
2022-10-15T15:15:12.695Z,42.63
2022-10-15T15:17:39.201Z,57.67
2022-10-15T15:20:06.301Z,48.45
2022-10-15T15:22:35.574Z,53.17
2022-10-15T15:25:10.216Z,58.42
2022-10-15T15:27:37.594Z,64.10
2022-10-15T15:30:06.738Z,73.35
2022-10-15T15:32:33.638Z,74.78
2022-10-15T15:35:00.487Z,76.15
2022-10-15T15:37:29.358Z,59.17
2022-10-15T15:39:56.367Z,57.28
2022-10-15T15:42:25.860Z,62.05
2022-10-15T15:44:52.602Z,51.80
2022-10-15T15:47:19.169Z,49.60
2022-10-15T15:49:46.698Z,38.65
2022-10-15T15:52:14.109Z,39.28
2022-10-15T15:54:41.275Z,33.38
2022-10-15T15:57:07.896Z,38.08
2022-10-15T15:59:34.530Z,33.72
2022-10-15T16:02:01.612Z,31.20
2022-10-15T16:04:28.205Z,28.73
2022-10-15T16:06:54.730Z,26.98
2022-10-15T16:09:23.021Z,27.25
2022-10-15T16:11:50.746Z,23.83
2022-10-15T16:14:17.343Z,27.02
2022-10-15T16:16:44.046Z,28.15
2022-10-15T16:19:10.577Z,23.42
2022-10-15T16:21:37.149Z,20.38
2022-10-15T16:24:03.862Z,22.88
2022-10-15T16:26:30.559Z,30.58
2022-10-15T16:28:57.117Z,37.20
2022-10-15T16:31:29.572Z,38.58
2022-10-15T16:33:57.513Z,33.53
2022-10-15T16:36:24.830Z,26.63
2022-10-15T16:38:51.738Z,23.17
2022-10-15T16:41:21.658Z,21.85
2022-10-15T16:43:48.822Z,21.17
2022-10-15T16:46:17.815Z,20.52
2022-10-15T16:48:44.738Z,21.27
2022-10-15T16:51:17.067Z,21.23
2022-10-15T16:53:45.413Z,24.38
2022-10-15T16:56:17.671Z,25.17
2022-10-15T16:58:44.244Z,39.17
2022-10-15T17:01:13.206Z,53.83
2022-10-15T17:03:41.147Z,67.05
2022-10-15T17:06:13.446Z,89.95
2022-10-15T17:08:43.851Z,103.90
2022-10-15T17:11:12.459Z,137.00
2022-10-15T17:13:39.278Z,129.68
2022-10-15T17:16:19.469Z,168.23
2022-10-15T17:18:46.671Z,183.52
2022-10-15T17:21:17.234Z,207.00
2022-10-15T17:23:44.044Z,230.88
2022-10-15T17:26:13.360Z,236.77
2022-10-15T17:28:40.635Z,244.50
2022-10-15T17:31:09.713Z,252.38
2022-10-15T17:33:37.325Z,246.05
2022-10-15T17:36:05.928Z,254.27
2022-10-15T17:38:32.685Z,245.20
2022-10-15T17:40:59.971Z,240.13
2022-10-15T17:43:27.427Z,230.35
2022-10-15T17:46:01.691Z,223.93
2022-10-15T17:48:28.666Z,208.98
2022-10-15T17:50:55.454Z,193.88
2022-10-15T17:53:22.022Z,187.23
2022-10-15T17:55:48.565Z,177.00
2022-10-15T17:58:16.718Z,177.70
2022-10-15T18:00:44.316Z,169.65
2022-10-15T18:03:11.730Z,165.88
2022-10-15T18:05:38.209Z,160.50
2022-10-15T18:08:04.770Z,151.25
2022-10-15T18:10:31.399Z,144.57
2022-10-15T18:12:57.970Z,145.90
2022-10-15T18:15:24.538Z,138.77
2022-10-15T18:17:51.034Z,135.80
2022-10-15T18:20:17.680Z,130.65
2022-10-15T18:22:44.231Z,123.45
2022-10-15T18:25:10.727Z,116.88
2022-10-15T18:27:37.295Z,120.60
2022-10-15T18:30:04.126Z,120.75
2022-10-15T18:32:30.622Z,121.78
2022-10-15T18:34:57.136Z,123.10
2022-10-15T18:37:24.001Z,120.18
2022-10-15T18:39:50.695Z,123.47
2022-10-15T18:42:17.178Z,120.80
2022-10-15T18:44:43.704Z,129.43
2022-10-15T18:47:11.645Z,128.98
2022-10-15T18:49:38.774Z,131.38
2022-10-15T18:52:15.819Z,136.95
2022-10-15T18:54:52.024Z,141.98
2022-10-15T18:57:18.594Z,158.07
2022-10-15T18:59:47.357Z,155.55
2022-10-15T19:02:13.917Z,168.10
2022-10-15T19:04:40.437Z,153.18
2022-10-15T19:07:06.914Z,160.88
2022-10-15T19:09:34.655Z,187.90
2022-10-15T19:12:01.349Z,188.15
2022-10-15T19:14:28.414Z,198.98
2022-10-15T19:16:56.652Z,201.40
2022-10-15T19:19:25.298Z,203.75
2022-10-15T19:21:52.707Z,211.07
2022-10-15T19:24:21.195Z,222.15
2022-10-15T19:26:49.230Z,221.65
2022-10-15T19:29:15.983Z,230.98
2022-10-15T19:31:44.646Z,235.68
2022-10-15T19:34:11.468Z,246.85
2022-10-15T19:36:40.890Z,262.20
2022-10-15T19:39:12.891Z,270.67
2022-10-15T19:41:41.083Z,272.20
2022-10-15T19:44:08.849Z,294.63
2022-10-15T19:46:36.513Z,310.20
2022-10-15T19:49:05.049Z,315.98
2022-10-15T19:51:31.692Z,319.48
2022-10-15T19:54:00.064Z,321.67
2022-10-15T19:56:27.676Z,311.40
2022-10-15T19:58:59.238Z,314.27
2022-10-15T20:01:26.827Z,309.65
2022-10-15T20:03:53.612Z,312.17
2022-10-15T20:06:20.918Z,315.40
2022-10-15T20:08:48.114Z,320.27
2022-10-15T20:11:14.675Z,344.27
2022-10-15T20:13:41.211Z,337.23
2022-10-15T20:16:10.686Z,356.73
2022-10-15T20:18:37.302Z,363.02
2022-10-15T20:21:08.863Z,357.17
2022-10-15T20:23:37.669Z,342.60
2022-10-15T20:26:10.095Z,351.15
2022-10-15T20:28:37.787Z,351.05
2022-10-15T20:31:06.455Z,360.88
2022-10-15T20:33:33.039Z,347.67
2022-10-15T20:36:07.185Z,355.30
2022-10-15T20:38:34.558Z,336.85
2022-10-15T20:41:08.950Z,351.85
2022-10-15T20:43:35.757Z,331.85
2022-10-15T20:46:02.602Z,350.30
2022-10-15T20:48:30.684Z,353.40
2022-10-15T20:50:57.480Z,356.63
2022-10-15T20:53:25.818Z,349.67
2022-10-15T20:55:52.766Z,356.73
2022-10-15T20:58:19.299Z,349.85
2022-10-15T21:00:46.210Z,353.65
2022-10-15T21:03:13.138Z,342.42
2022-10-15T21:05:39.650Z,349.90
2022-10-15T21:08:06.297Z,352.63
2022-10-15T21:10:32.861Z,362.60
2022-10-15T21:12:59.943Z,349.23
2022-10-15T21:15:27.373Z,362.95
2022-10-15T21:17:53.880Z,346.60
2022-10-15T21:20:20.427Z,340.88
2022-10-15T21:22:46.911Z,342.77
2022-10-15T21:25:13.413Z,350.88
2022-10-15T21:27:39.911Z,334.23
2022-10-15T21:30:07.099Z,319.63
2022-10-15T21:32:33.742Z,321.30
2022-10-15T21:35:00.808Z,329.58
2022-10-15T21:37:27.644Z,319.88
2022-10-15T21:39:54.367Z,314.50
2022-10-15T21:42:20.849Z,333.38
2022-10-15T21:44:47.338Z,334.20
2022-10-15T21:47:15.259Z,330.60
2022-10-15T21:49:42.107Z,333.58
2022-10-15T21:52:08.594Z,331.38
2022-10-15T21:54:35.224Z,339.05
2022-10-15T21:57:01.729Z,337.40
2022-10-15T21:59:28.223Z,336.63
2022-10-15T22:01:54.899Z,329.85
2022-10-15T22:04:21.458Z,335.55
2022-10-15T22:06:47.924Z,329.77
2022-10-15T22:09:14.574Z,334.13
2022-10-15T22:11:41.762Z,326.45
2022-10-15T22:14:12.191Z,331.05
2022-10-15T22:16:40.143Z,339.75
2022-10-15T22:19:09.602Z,333.23
2022-10-15T22:21:38.256Z,331.77
2022-10-15T22:24:17.211Z,332.25
2022-10-15T22:26:49.696Z,328.45
2022-10-15T22:29:31.806Z,329.77
2022-10-15T22:32:02.421Z,311.27
2022-10-15T22:34:28.950Z,324.42
2022-10-15T22:36:55.447Z,317.88
2022-10-15T22:39:21.961Z,308.85
2022-10-15T22:41:48.925Z,305.88
2022-10-15T22:44:18.896Z,312.33
2022-10-15T22:46:46.767Z,312.27
2022-10-15T22:49:14.169Z,307.95
2022-10-15T22:51:41.436Z,302.50
2022-10-15T22:54:08.072Z,314.33
2022-10-15T22:56:34.796Z,308.05
2022-10-15T22:59:01.342Z,309.67
2022-10-15T23:01:30.169Z,309.40
2022-10-15T23:04:01.700Z,308.65
2022-10-15T23:06:29.099Z,311.60
2022-10-15T23:08:56.838Z,324.70
2022-10-15T23:11:24.834Z,302.73
2022-10-15T23:13:57.174Z,319.10
2022-10-15T23:16:30.219Z,320.52
2022-10-15T23:19:02.482Z,308.83
2022-10-15T23:21:49.983Z,316.02
2022-10-15T23:24:18.419Z,286.85
2022-10-15T23:26:45.092Z,287.88
2022-10-15T23:29:17.479Z,296.27
2022-10-15T23:31:44.240Z,285.05
2022-10-15T23:34:15.106Z,290.63
2022-10-15T23:36:42.808Z,292.13
2022-10-15T23:39:13.565Z,294.15
2022-10-15T23:41:40.270Z,287.02
2022-10-15T23:44:06.771Z,277.40
2022-10-15T23:46:33.274Z,270.73
2022-10-15T23:48:59.813Z,268.83
2022-10-15T23:51:28.963Z,252.27
2022-10-15T23:53:57.807Z,253.02
2022-10-15T23:56:25.475Z,252.98
2022-10-15T23:58:55.598Z,251.02
